createdAt,value
2019-02-15T00:01:44.609Z,5.82
2019-02-15T00:04:16.431Z,5.85
2019-02-15T00:06:48.863Z,5.78
2019-02-15T00:09:19.622Z,5.71
2019-02-15T00:11:50.794Z,5.63
2019-02-15T00:14:22.426Z,5.57
2019-02-15T00:16:54.347Z,5.56
2019-02-15T00:19:27.637Z,5.51
2019-02-15T00:21:59.059Z,5.47
2019-02-15T00:24:30.898Z,5.45
2019-02-15T00:27:01.826Z,5.40
2019-02-15T00:29:32.623Z,5.34
2019-02-15T00:32:06.275Z,5.26
2019-02-15T00:34:37.655Z,5.20
2019-02-15T00:37:09.028Z,5.18
2019-02-15T00:39:40.073Z,5.15
2019-02-15T00:42:11.073Z,5.16
2019-02-15T00:44:42.567Z,5.15
2019-02-15T00:47:15.063Z,5.10
2019-02-15T00:49:46.483Z,5.04
2019-02-15T00:52:19.458Z,4.99
2019-02-15T00:54:51.796Z,4.97
2019-02-15T00:57:24.571Z,4.92
2019-02-15T00:59:57.535Z,4.83
2019-02-15T01:02:30.055Z,4.75
2019-02-15T01:05:02.766Z,4.68
2019-02-15T01:07:35.695Z,4.68
2019-02-15T01:10:08.669Z,4.71
2019-02-15T01:12:41.840Z,4.78
2019-02-15T01:15:13.714Z,4.75
2019-02-15T01:17:45.628Z,4.62
2019-02-15T01:20:17.262Z,4.51
2019-02-15T01:22:48.624Z,4.40
2019-02-15T01:25:20.366Z,4.28
2019-02-15T01:27:52.803Z,4.19
2019-02-15T01:30:25.674Z,4.11
2019-02-15T01:32:59.081Z,4.08
2019-02-15T01:35:32.465Z,4.00
2019-02-15T01:38:05.167Z,3.99
2019-02-15T01:40:37.368Z,3.96
2019-02-15T01:43:10.208Z,3.93
2019-02-15T01:45:42.493Z,3.90
2019-02-15T01:48:13.539Z,3.84
2019-02-15T01:50:44.954Z,3.77
2019-02-15T01:53:16.105Z,3.76
2019-02-15T01:55:47.062Z,3.79
2019-02-15T01:58:17.740Z,3.79
2019-02-15T02:00:49.171Z,3.78
2019-02-15T02:03:21.995Z,3.75
2019-02-15T02:05:53.222Z,3.70
2019-02-15T02:08:26.046Z,3.63
2019-02-15T02:10:56.626Z,3.62
2019-02-15T02:13:27.246Z,3.61
2019-02-15T02:15:58.137Z,3.57
2019-02-15T02:18:29.226Z,3.53
2019-02-15T02:21:00.175Z,3.50
2019-02-15T02:23:31.450Z,3.47
2019-02-15T02:26:02.559Z,3.44
2019-02-15T02:28:33.750Z,3.39
2019-02-15T02:31:04.992Z,3.35
2019-02-15T02:33:37.809Z,3.31
2019-02-15T02:36:08.684Z,3.28
2019-02-15T02:38:39.473Z,3.26
2019-02-15T02:41:10.491Z,3.25
2019-02-15T02:43:41.539Z,3.22
2019-02-15T02:46:13.301Z,3.21
2019-02-15T02:48:44.664Z,3.23
2019-02-15T02:51:16.774Z,3.25
2019-02-15T02:53:48.066Z,3.26
2019-02-15T02:56:18.858Z,3.21
2019-02-15T02:58:50.041Z,3.17
2019-02-15T03:01:23.152Z,3.13
2019-02-15T03:03:54.700Z,3.08
2019-02-15T03:06:25.825Z,3.06
2019-02-15T03:08:56.981Z,3.02
2019-02-15T03:11:28.620Z,3.02
2019-02-15T03:14:10.720Z,2.98
2019-02-15T03:16:32.417Z,2.94
2019-02-15T03:19:03.674Z,2.85
2019-02-15T03:21:34.824Z,2.80
2019-02-15T03:24:05.755Z,2.81
2019-02-15T03:26:37.756Z,2.82
2019-02-15T03:29:08.473Z,2.81
2019-02-15T03:31:39.336Z,2.78
2019-02-15T03:34:11.039Z,2.74
2019-02-15T03:36:44.050Z,2.75
2019-02-15T03:39:16.837Z,2.74
2019-02-15T03:41:47.921Z,2.75
2019-02-15T03:44:22.314Z,2.70
2019-02-15T03:46:52.175Z,2.66
2019-02-15T03:49:23.597Z,2.60
2019-02-15T03:51:54.863Z,2.57
2019-02-15T03:54:26.071Z,2.53
2019-02-15T03:56:56.809Z,2.53
2019-02-15T03:59:27.579Z,2.51
2019-02-15T04:01:58.712Z,2.56
2019-02-15T04:04:30.224Z,2.55
2019-02-15T04:07:01.211Z,2.54
2019-02-15T04:09:32.451Z,2.50
2019-02-15T04:12:03.302Z,2.48
2019-02-15T04:14:34.401Z,2.50
2019-02-15T04:17:05.540Z,2.51
2019-02-15T04:19:36.750Z,2.51
2019-02-15T04:22:07.517Z,2.52
2019-02-15T04:24:38.249Z,2.55
2019-02-15T04:27:09.103Z,2.50
2019-02-15T04:29:40.271Z,2.49
2019-02-15T04:32:11.305Z,2.46
2019-02-15T04:34:45.765Z,2.45
2019-02-15T04:37:16.636Z,2.38
2019-02-15T04:39:47.826Z,2.40
2019-02-15T04:42:18.932Z,2.40
2019-02-15T04:44:50.346Z,2.32
2019-02-15T04:47:21.392Z,2.33
2019-02-15T04:49:52.829Z,2.25
2019-02-15T04:52:25.207Z,2.22
2019-02-15T04:54:56.758Z,2.12
2019-02-15T04:57:27.762Z,2.03
2019-02-15T04:59:58.694Z,1.94
2019-02-15T05:02:33.670Z,1.91
2019-02-15T05:05:05.445Z,1.84
2019-02-15T05:07:37.032Z,1.84
2019-02-15T05:10:08.512Z,1.76
2019-02-15T05:12:39.537Z,1.73
2019-02-15T05:15:11.245Z,1.71
2019-02-15T05:17:42.624Z,1.71
2019-02-15T05:20:13.427Z,1.67
2019-02-15T05:22:44.393Z,1.64
2019-02-15T05:25:15.317Z,1.60
2019-02-15T05:27:46.497Z,1.61
2019-02-15T05:30:17.918Z,1.62
2019-02-15T05:32:49.103Z,1.61
2019-02-15T05:35:20.246Z,1.64
2019-02-15T05:37:52.708Z,1.65
2019-02-15T05:40:23.677Z,1.59
2019-02-15T05:42:54.797Z,1.57
2019-02-15T05:45:26.045Z,1.59
2019-02-15T05:47:58.313Z,1.63
2019-02-15T05:50:30.711Z,1.69
2019-02-15T05:53:02.497Z,1.74
2019-02-15T05:55:33.513Z,1.77
2019-02-15T05:58:04.795Z,1.77
2019-02-15T06:00:37.287Z,1.76
2019-02-15T06:03:09.834Z,1.77
2019-02-15T06:05:41.553Z,1.83
2019-02-15T06:08:13.191Z,1.80
2019-02-15T06:10:44.737Z,1.78
2019-02-15T06:13:16.270Z,1.77
2019-02-15T06:15:47.789Z,1.77
2019-02-15T06:18:19.799Z,1.79
2019-02-15T06:20:51.381Z,1.68
2019-02-15T06:23:23.985Z,1.63
2019-02-15T06:25:56.221Z,1.44
2019-02-15T06:28:27.833Z,1.67
2019-02-15T06:30:59.954Z,1.69
2019-02-15T06:33:31.049Z,1.59
2019-02-15T06:36:02.947Z,1.63
2019-02-15T06:38:35.076Z,1.65
2019-02-15T06:41:07.485Z,1.72
2019-02-15T06:43:40.409Z,1.72
2019-02-15T06:46:12.187Z,1.60
2019-02-15T06:48:44.222Z,1.62
2019-02-15T06:51:15.286Z,1.63
2019-02-15T06:53:46.986Z,1.54
2019-02-15T06:56:19.493Z,1.59
2019-02-15T06:58:53.295Z,1.67
2019-02-15T07:01:26.231Z,1.60
2019-02-15T07:03:59.614Z,1.68
2019-02-15T07:06:30.600Z,1.73
2019-02-15T07:09:01.362Z,1.73
2019-02-15T07:11:33.935Z,1.71
2019-02-15T07:14:05.255Z,1.68
2019-02-15T07:16:36.147Z,1.71
2019-02-15T07:19:07.069Z,1.72
2019-02-15T07:21:37.620Z,1.82
2019-02-15T07:24:08.342Z,1.93
2019-02-15T07:26:39.495Z,1.96
2019-02-15T07:29:10.016Z,2.02
2019-02-15T07:31:40.699Z,2.02
2019-02-15T07:34:11.290Z,2.06
2019-02-15T07:36:42.777Z,2.08
2019-02-15T07:39:13.778Z,2.06
2019-02-15T07:41:44.848Z,2.16
2019-02-15T07:44:16.095Z,2.25
2019-02-15T07:46:48.057Z,2.31
2019-02-15T07:49:26.650Z,2.31
2019-02-15T07:51:51.657Z,2.35
2019-02-15T07:54:23.882Z,2.42
2019-02-15T07:56:54.897Z,2.41
2019-02-15T07:59:25.862Z,2.49
2019-02-15T08:02:01.806Z,2.53
2019-02-15T08:04:30.665Z,2.64
2019-02-15T08:07:03.530Z,2.72
2019-02-15T08:09:36.890Z,2.84
2019-02-15T08:12:09.895Z,2.93
2019-02-15T08:14:41.729Z,3.01
2019-02-15T08:17:13.411Z,3.08
2019-02-15T08:19:44.735Z,3.16
2019-02-15T08:22:17.574Z,3.21
2019-02-15T08:24:48.288Z,3.32
2019-02-15T08:27:19.729Z,3.36
2019-02-15T08:29:51.047Z,3.39
2019-02-15T08:32:22.606Z,3.43
2019-02-15T08:34:54.632Z,3.50
2019-02-15T08:37:27.529Z,3.56
2019-02-15T08:39:58.496Z,3.61
2019-02-15T08:42:35.726Z,3.63
2019-02-15T08:45:09.889Z,3.63
2019-02-15T08:47:46.569Z,3.49
2019-02-15T08:50:20.567Z,3.55
2019-02-15T08:52:52.310Z,3.61
2019-02-15T08:55:23.362Z,3.66
2019-02-15T08:57:54.727Z,3.71
2019-02-15T09:00:26.010Z,3.71
2019-02-15T09:02:56.663Z,3.65
2019-02-15T09:05:29.288Z,3.65
2019-02-15T09:08:00.014Z,3.63
2019-02-15T09:10:31.354Z,3.68
2019-02-15T09:13:06.248Z,3.72
2019-02-15T09:15:48.905Z,3.79
2019-02-15T09:18:42.182Z,3.85
2019-02-15T09:21:31.857Z,3.94
2019-02-15T09:24:25.246Z,3.98
2019-02-15T09:27:13.168Z,4.00
2019-02-15T09:29:57.193Z,4.04
2019-02-15T09:32:42.167Z,3.95
2019-02-15T09:35:25.386Z,3.96
2019-02-15T09:38:13.967Z,3.93
2019-02-15T09:40:54.340Z,4.05
2019-02-15T09:43:37.975Z,4.07
2019-02-15T09:49:36.459Z,4.30
2019-02-15T09:52:11.231Z,4.37
2019-02-15T09:58:00.464Z,4.47
2019-02-15T10:00:34.128Z,4.06
2019-02-15T10:03:11.043Z,3.90
2019-02-15T10:05:44.003Z,3.69
2019-02-15T10:08:28.231Z,3.73
2019-02-15T10:11:08.403Z,3.68
2019-02-15T10:13:39.421Z,3.57
2019-02-15T10:16:10.697Z,3.52
2019-02-15T10:18:42.136Z,3.47
2019-02-15T10:21:15.030Z,3.57
2019-02-15T10:23:46.626Z,3.67
2019-02-15T10:26:17.357Z,3.57
2019-02-15T10:28:48.047Z,3.53
2019-02-15T10:31:18.752Z,3.47
2019-02-15T10:33:49.382Z,3.37
2019-02-15T10:36:20.230Z,3.33
2019-02-15T10:38:50.870Z,3.21
2019-02-15T10:41:21.989Z,3.20
2019-02-15T10:43:53.748Z,3.20
2019-02-15T10:46:25.379Z,3.17
2019-02-15T10:48:56.397Z,3.27
2019-02-15T10:51:27.671Z,3.29
2019-02-15T10:54:00.093Z,3.35
2019-02-15T10:56:31.112Z,3.26
2019-02-15T10:59:01.910Z,3.17
2019-02-15T11:01:32.534Z,3.13
2019-02-15T11:04:03.104Z,3.18
2019-02-15T11:06:33.520Z,3.25
2019-02-15T11:09:05.528Z,3.22
2019-02-15T11:11:37.908Z,3.21
2019-02-15T11:14:08.575Z,3.19
2019-02-15T11:16:46.940Z,3.24
2019-02-15T11:19:10.979Z,3.32
2019-02-15T11:21:41.751Z,3.34
2019-02-15T11:24:12.060Z,3.35
2019-02-15T11:26:42.351Z,3.25
2019-02-15T11:29:13.697Z,3.36
2019-02-15T11:31:44.000Z,3.45
2019-02-15T11:34:14.453Z,3.52
2019-02-15T11:36:45.140Z,3.54
2019-02-15T11:39:15.476Z,3.42
2019-02-15T11:41:45.775Z,3.41
2019-02-15T11:44:16.111Z,3.46
2019-02-15T11:46:46.392Z,3.39
2019-02-15T11:49:16.690Z,3.30
2019-02-15T11:51:47.029Z,3.34
2019-02-15T11:54:23.675Z,3.36
2019-02-15T11:56:49.353Z,3.32
2019-02-15T11:59:19.776Z,3.30
2019-02-15T12:01:50.250Z,3.34
2019-02-15T12:04:20.557Z,3.37
2019-02-15T12:06:50.857Z,3.38
2019-02-15T12:09:21.276Z,3.37
2019-02-15T12:11:51.631Z,3.46
2019-02-15T12:14:22.069Z,3.53
2019-02-15T12:16:52.435Z,3.56
2019-02-15T12:19:22.786Z,3.49
2019-02-15T12:21:53.148Z,3.57
2019-02-15T12:24:23.501Z,3.49
2019-02-15T12:26:54.159Z,3.62
2019-02-15T12:29:24.983Z,3.68
2019-02-15T12:31:55.306Z,3.76
2019-02-15T12:34:25.613Z,3.74
2019-02-15T12:36:55.927Z,3.69
2019-02-15T12:39:26.367Z,3.68
2019-02-15T12:41:56.638Z,3.79
2019-02-15T12:44:27.809Z,3.85
2019-02-15T12:46:58.305Z,3.82
2019-02-15T12:49:29.543Z,3.85
2019-02-15T12:51:59.899Z,3.87
2019-02-15T12:54:30.325Z,3.83
2019-02-15T12:57:00.675Z,3.84
2019-02-15T12:59:32.559Z,3.91
2019-02-15T13:02:02.875Z,4.02
2019-02-15T13:04:33.236Z,4.00
2019-02-15T13:07:03.862Z,4.09
2019-02-15T13:09:34.150Z,4.09
2019-02-15T13:12:04.486Z,4.11
2019-02-15T13:14:34.955Z,4.05
2019-02-15T13:17:05.458Z,4.08
2019-02-15T13:19:35.755Z,4.18
2019-02-15T13:22:07.154Z,4.22
2019-02-15T13:24:37.439Z,4.32
2019-02-15T13:27:07.828Z,4.26
2019-02-15T13:29:38.434Z,4.25
2019-02-15T13:32:09.819Z,4.30
2019-02-15T13:34:40.620Z,4.27
2019-02-15T13:37:12.232Z,4.29
2019-02-15T13:39:46.081Z,4.35
2019-02-15T13:42:16.564Z,4.37
2019-02-15T13:44:47.563Z,4.48
2019-02-15T13:47:17.831Z,4.51
2019-02-15T13:49:48.260Z,4.62
2019-02-15T13:52:18.651Z,4.66
2019-02-15T13:54:48.947Z,4.59
2019-02-15T13:57:19.312Z,4.66
2019-02-15T13:59:49.662Z,4.67
2019-02-15T14:02:19.995Z,4.68
2019-02-15T14:04:50.303Z,4.72
2019-02-15T14:07:20.788Z,4.75
2019-02-15T14:09:51.262Z,4.93
2019-02-15T14:12:21.601Z,5.01
2019-02-15T14:14:51.985Z,4.88
2019-02-15T14:17:22.361Z,4.86
2019-02-15T14:19:52.710Z,4.84
2019-02-15T14:22:23.075Z,4.90
2019-02-15T14:24:53.410Z,4.89
2019-02-15T14:27:23.840Z,4.88
2019-02-15T14:29:54.180Z,4.73
2019-02-15T14:32:24.820Z,4.62
2019-02-15T14:34:55.702Z,4.64
2019-02-15T14:37:26.057Z,4.65
2019-02-15T14:39:56.348Z,4.74
2019-02-15T14:42:26.659Z,4.83
2019-02-15T14:44:57.101Z,4.86
2019-02-15T14:47:27.379Z,4.91
2019-02-15T14:49:57.751Z,4.94
2019-02-15T14:52:28.028Z,5.01
2019-02-15T14:54:59.112Z,5.02
2019-02-15T14:57:29.560Z,5.05
2019-02-15T14:59:59.898Z,5.03
2019-02-15T15:02:31.237Z,5.06
2019-02-15T15:05:01.552Z,5.12
2019-02-15T15:07:33.003Z,5.16
2019-02-15T15:10:03.385Z,5.21
2019-02-15T15:12:33.760Z,5.21
2019-02-15T15:15:08.267Z,5.24
2019-02-15T15:17:38.666Z,5.23
2019-02-15T15:20:10.878Z,5.18
2019-02-15T15:22:41.305Z,5.16
2019-02-15T15:25:13.866Z,5.16
2019-02-15T15:27:44.190Z,5.12
2019-02-15T15:30:19.882Z,5.14
2019-02-15T15:32:51.369Z,5.07
2019-02-15T15:35:26.147Z,5.06
2019-02-15T15:37:56.979Z,5.01
2019-02-15T15:40:27.522Z,4.92
2019-02-15T15:42:59.185Z,4.88
2019-02-15T15:45:29.692Z,4.82
2019-02-15T15:48:00.381Z,4.81
2019-02-15T15:50:31.149Z,4.74
2019-02-15T15:53:02.139Z,4.71
2019-02-15T15:55:33.108Z,4.74
2019-02-15T15:58:04.077Z,4.66
2019-02-15T16:00:38.939Z,4.55
2019-02-15T16:03:07.580Z,4.55
2019-02-15T16:05:38.140Z,4.47
2019-02-15T16:08:08.539Z,4.32
2019-02-15T16:10:39.016Z,4.21
2019-02-15T16:13:09.662Z,4.14
2019-02-15T16:15:41.348Z,4.07
2019-02-15T16:18:12.186Z,3.90
2019-02-15T16:20:42.700Z,3.84
2019-02-15T16:23:13.591Z,3.77
2019-02-15T16:25:44.200Z,3.61
2019-02-15T16:28:14.851Z,3.57
2019-02-15T16:30:45.502Z,3.54
2019-02-15T16:33:16.075Z,3.57
2019-02-15T16:35:46.506Z,3.56
2019-02-15T16:38:17.317Z,3.60
2019-02-15T16:40:48.419Z,3.51
2019-02-15T16:43:19.502Z,3.45
2019-02-15T16:45:50.259Z,3.47
2019-02-15T16:48:20.562Z,3.46
2019-02-15T16:50:51.169Z,3.36
2019-02-15T16:53:21.594Z,3.34
2019-02-15T16:55:52.354Z,3.33
2019-02-15T16:58:23.132Z,3.30
2019-02-15T17:00:55.581Z,3.22
2019-02-15T17:03:27.172Z,3.10
2019-02-15T17:05:58.365Z,2.95
2019-02-15T17:08:31.669Z,2.92
2019-02-15T17:11:03.960Z,2.79
2019-02-15T17:13:34.804Z,2.65
2019-02-15T17:16:05.577Z,2.50
2019-02-15T17:18:37.220Z,2.51
2019-02-15T17:21:08.143Z,2.43
2019-02-15T17:23:38.549Z,2.46
2019-02-15T17:26:08.879Z,2.51
2019-02-15T17:28:40.375Z,2.39
2019-02-15T17:31:12.264Z,2.27
2019-02-15T17:34:02.463Z,2.15
2019-02-15T17:36:45.477Z,2.19
2019-02-15T17:39:24.255Z,2.20
2019-02-15T17:41:59.892Z,2.15
2019-02-15T17:44:38.777Z,2.17
2019-02-15T17:47:10.629Z,2.04
2019-02-15T17:49:45.140Z,2.02
2019-02-15T17:52:23.890Z,2.02
2019-02-15T17:54:59.444Z,2.03
2019-02-15T17:57:32.016Z,2.00
2019-02-15T18:00:09.951Z,1.87
2019-02-15T18:02:44.099Z,1.82
2019-02-15T18:05:19.018Z,1.77
2019-02-15T18:07:56.259Z,1.80
2019-02-15T18:10:31.011Z,1.82
2019-02-15T18:13:02.824Z,1.83
2019-02-15T18:15:47.273Z,1.85
2019-02-15T18:18:42.222Z,1.80
2019-02-15T18:21:22.721Z,1.69
2019-02-15T18:23:54.599Z,1.56
2019-02-15T18:26:28.737Z,1.51
2019-02-15T18:29:00.185Z,1.62
2019-02-15T18:31:31.769Z,1.68
2019-02-15T18:34:03.341Z,1.58
2019-02-15T18:36:36.659Z,1.45
2019-02-15T18:39:09.981Z,1.39
2019-02-15T18:41:46.268Z,1.34
2019-02-15T18:44:18.547Z,1.37
2019-02-15T18:46:51.141Z,1.54
2019-02-15T18:49:26.953Z,1.65
2019-02-15T18:52:11.119Z,1.74
2019-02-15T18:54:44.849Z,1.81
2019-02-15T18:57:15.145Z,1.86
2019-02-15T18:59:46.273Z,1.96
2019-02-15T19:02:24.266Z,1.97
2019-02-15T19:05:18.433Z,2.01
2019-02-15T19:08:03.372Z,1.87
2019-02-15T19:10:57.421Z,1.64
2019-02-15T19:13:33.362Z,1.46
2019-02-15T19:16:04.684Z,1.37
2019-02-15T19:18:35.600Z,1.32
2019-02-15T19:21:07.361Z,1.41
2019-02-15T19:23:39.521Z,1.53
2019-02-15T19:26:11.275Z,1.60
2019-02-15T19:28:43.099Z,1.61
2019-02-15T19:31:14.735Z,1.59
2019-02-15T19:33:48.701Z,1.61
2019-02-15T19:36:19.801Z,1.69
2019-02-15T19:38:52.217Z,1.55
2019-02-15T19:41:24.100Z,1.59
2019-02-15T19:43:56.547Z,1.55
2019-02-15T19:46:29.920Z,1.31
2019-02-15T19:49:01.180Z,1.33
2019-02-15T19:51:33.339Z,1.22
2019-02-15T19:54:04.879Z,1.09
2019-02-15T19:56:35.238Z,0.99
2019-02-15T19:59:09.416Z,0.96
2019-02-15T20:01:41.909Z,0.96
2019-02-15T20:04:13.755Z,1.06
2019-02-15T20:06:45.854Z,1.06
2019-02-15T20:09:19.639Z,1.09
2019-02-15T20:11:50.647Z,1.21
2019-02-15T20:14:21.715Z,1.26
2019-02-15T20:16:55.583Z,1.13
2019-02-15T20:19:26.649Z,1.09
2019-02-15T20:22:25.767Z,1.02
2019-02-15T20:25:10.422Z,1.02
2019-02-15T20:27:41.043Z,1.07
2019-02-15T20:30:19.400Z,1.00
2019-02-15T20:32:51.500Z,1.00
2019-02-15T20:35:25.579Z,1.00
2019-02-15T20:37:56.423Z,0.94
2019-02-15T20:40:28.910Z,0.99
2019-02-15T20:43:11.123Z,0.83
2019-02-15T20:45:50.602Z,0.83
2019-02-15T20:48:25.744Z,0.68
2019-02-15T20:50:56.821Z,0.66
2019-02-15T20:53:27.712Z,0.68
2019-02-15T20:55:58.172Z,0.76
2019-02-15T20:58:28.784Z,0.76
2019-02-15T21:01:00.742Z,0.84
2019-02-15T21:03:31.289Z,0.86
2019-02-15T21:06:14.565Z,0.82
2019-02-15T21:08:48.222Z,0.68
2019-02-15T21:11:29.173Z,0.54
2019-02-15T21:14:30.304Z,0.29
2019-02-15T21:17:09.583Z,0.29
2019-02-15T21:19:45.617Z,0.31
2019-02-15T21:22:21.392Z,0.31
2019-02-15T21:25:17.250Z,0.37
2019-02-15T21:27:59.872Z,0.62
2019-02-15T21:30:41.928Z,0.62
2019-02-15T21:33:17.057Z,0.63
2019-02-15T21:35:59.198Z,0.58
2019-02-15T21:38:37.935Z,0.51
2019-02-15T21:41:08.848Z,0.54
2019-02-15T21:43:54.781Z,0.52
2019-02-15T21:46:52.546Z,0.46
2019-02-15T21:49:48.120Z,0.52
2019-02-15T21:52:33.609Z,0.43
2019-02-15T21:55:16.506Z,0.44
2019-02-15T21:58:01.150Z,0.46
2019-02-15T22:00:26.661Z,0.33
2019-02-15T22:03:11.006Z,0.35
2019-02-15T22:06:08.342Z,0.37
2019-02-15T22:08:49.751Z,0.44
2019-02-15T22:11:23.904Z,0.21
2019-02-15T22:13:56.921Z,0.48
2019-02-15T22:16:32.084Z,0.48
2019-02-15T22:19:07.507Z,0.45
2019-02-15T22:21:38.615Z,0.47
2019-02-15T22:24:09.978Z,0.51
2019-02-15T22:26:40.940Z,0.53
2019-02-15T22:29:12.738Z,0.44
2019-02-15T22:31:45.888Z,0.45
2019-02-15T22:34:16.761Z,0.45
2019-02-15T22:36:48.229Z,0.41
2019-02-15T22:39:19.199Z,0.41
2019-02-15T22:41:49.916Z,0.25
2019-02-15T22:44:22.279Z,0.14
2019-02-15T22:47:15.705Z,0.18
2019-02-15T22:49:46.750Z,0.29
2019-02-15T22:52:18.801Z,0.35
2019-02-15T22:54:50.740Z,0.40
2019-02-15T22:57:22.361Z,0.42
2019-02-15T22:59:55.563Z,0.25
2019-02-15T23:02:27.175Z,0.25
2019-02-15T23:04:58.640Z,0.24
2019-02-15T23:07:30.001Z,0.19
2019-02-15T23:10:01.240Z,0.19
2019-02-15T23:12:32.708Z,0.18
2019-02-15T23:15:04.240Z,0.30
2019-02-15T23:17:35.169Z,0.32
2019-02-15T23:20:07.583Z,0.27
2019-02-15T23:22:39.173Z,0.31
2019-02-15T23:25:10.604Z,0.33
2019-02-15T23:27:42.079Z,0.37
2019-02-15T23:30:14.341Z,0.37
2019-02-15T23:32:45.464Z,0.53
2019-02-15T23:35:17.222Z,0.44
2019-02-15T23:37:48.762Z,0.10
2019-02-15T23:40:19.726Z,0.05
2019-02-15T23:42:50.924Z,0.04
2019-02-15T23:45:21.904Z,0.18
2019-02-15T23:47:52.618Z,0.19
2019-02-15T23:50:23.359Z,0.12
2019-02-15T23:52:54.442Z,0.16
2019-02-15T23:55:25.446Z,0.02
2019-02-15T23:57:56.363Z,0.02
